sensor_id;sensor_type;location;lat;lon;timestamp;P1;durP1;ratioP1;P2;durP2;ratioP2
63087;SDS011;49173;43.164;27.786;2024-01-07T00:00:06;6.53;;;3.22;;
63087;SDS011;49173;43.164;27.786;2024-01-07T00:02:32;9.77;;;4.20;;
63087;SDS011;49173;43.164;27.786;2024-01-07T00:04:58;9.00;;;3.90;;
63087;SDS011;49173;43.164;27.786;2024-01-07T00:07:24;8.07;;;3.80;;
63087;SDS011;49173;43.164;27.786;2024-01-07T00:09:50;12.00;;;4.93;;
63087;SDS011;49173;43.164;27.786;2024-01-07T00:12:16;14.32;;;4.57;;
63087;SDS011;49173;43.164;27.786;2024-01-07T00:14:42;9.93;;;3.60;;
63087;SDS011;49173;43.164;27.786;2024-01-07T00:17:09;10.80;;;4.65;;
63087;SDS011;49173;43.164;27.786;2024-01-07T00:19:36;8.52;;;3.55;;
63087;SDS011;49173;43.164;27.786;2024-01-07T00:22:04;7.30;;;3.80;;
63087;SDS011;49173;43.164;27.786;2024-01-07T00:24:30;9.75;;;3.42;;
63087;SDS011;49173;43.164;27.786;2024-01-07T00:26:56;6.60;;;4.10;;
63087;SDS011;49173;43.164;27.786;2024-01-07T00:29:22;11.38;;;4.40;;
63087;SDS011;49173;43.164;27.786;2024-01-07T00:31:47;8.15;;;4.05;;
63087;SDS011;49173;43.164;27.786;2024-01-07T00:34:13;7.68;;;3.53;;
63087;SDS011;49173;43.164;27.786;2024-01-07T00:36:39;7.00;;;3.72;;
63087;SDS011;49173;43.164;27.786;2024-01-07T00:39:05;11.27;;;3.78;;
63087;SDS011;49173;43.164;27.786;2024-01-07T00:41:31;8.65;;;3.65;;
63087;SDS011;49173;43.164;27.786;2024-01-07T00:43:56;6.97;;;3.42;;
63087;SDS011;49173;43.164;27.786;2024-01-07T00:46:22;9.65;;;3.40;;
63087;SDS011;49173;43.164;27.786;2024-01-07T00:48:48;9.73;;;4.13;;
63087;SDS011;49173;43.164;27.786;2024-01-07T00:51:14;6.20;;;3.70;;
63087;SDS011;49173;43.164;27.786;2024-01-07T00:53:40;7.13;;;3.70;;
63087;SDS011;49173;43.164;27.786;2024-01-07T00:56:06;10.25;;;3.53;;
63087;SDS011;49173;43.164;27.786;2024-01-07T00:58:32;6.57;;;3.45;;
63087;SDS011;49173;43.164;27.786;2024-01-07T01:00:58;9.80;;;4.78;;
63087;SDS011;49173;43.164;27.786;2024-01-07T01:03:25;6.85;;;3.65;;
63087;SDS011;49173;43.164;27.786;2024-01-07T01:05:52;14.60;;;3.85;;
63087;SDS011;49173;43.164;27.786;2024-01-07T01:08:18;6.93;;;3.38;;
63087;SDS011;49173;43.164;27.786;2024-01-07T01:10:43;8.57;;;3.92;;
63087;SDS011;49173;43.164;27.786;2024-01-07T01:13:09;8.15;;;3.65;;
63087;SDS011;49173;43.164;27.786;2024-01-07T01:15:35;9.15;;;3.25;;
63087;SDS011;49173;43.164;27.786;2024-01-07T01:18:01;9.02;;;3.67;;
63087;SDS011;49173;43.164;27.786;2024-01-07T01:20:27;6.80;;;2.88;;
63087;SDS011;49173;43.164;27.786;2024-01-07T01:22:53;7.57;;;3.90;;
63087;SDS011;49173;43.164;27.786;2024-01-07T01:25:19;7.95;;;3.50;;
63087;SDS011;49173;43.164;27.786;2024-01-07T01:27:45;8.48;;;3.53;;
63087;SDS011;49173;43.164;27.786;2024-01-07T01:30:11;7.78;;;3.40;;
63087;SDS011;49173;43.164;27.786;2024-01-07T01:32:39;6.88;;;3.35;;
63087;SDS011;49173;43.164;27.786;2024-01-07T01:35:05;8.60;;;3.40;;
63087;SDS011;49173;43.164;27.786;2024-01-07T01:37:31;10.27;;;3.50;;
63087;SDS011;49173;43.164;27.786;2024-01-07T01:39:58;8.52;;;3.60;;
63087;SDS011;49173;43.164;27.786;2024-01-07T01:42:24;8.40;;;3.30;;
63087;SDS011;49173;43.164;27.786;2024-01-07T01:44:50;8.38;;;3.60;;
63087;SDS011;49173;43.164;27.786;2024-01-07T01:47:17;5.90;;;3.58;;
63087;SDS011;49173;43.164;27.786;2024-01-07T01:49:43;8.02;;;3.83;;
63087;SDS011;49173;43.164;27.786;2024-01-07T01:52:11;6.38;;;3.50;;
63087;SDS011;49173;43.164;27.786;2024-01-07T01:54:38;6.88;;;3.60;;
63087;SDS011;49173;43.164;27.786;2024-01-07T01:57:04;8.52;;;3.65;;
63087;SDS011;49173;43.164;27.786;2024-01-07T01:59:31;9.25;;;3.13;;
63087;SDS011;49173;43.164;27.786;2024-01-07T02:01:59;6.45;;;3.20;;
63087;SDS011;49173;43.164;27.786;2024-01-07T02:04:26;6.15;;;3.47;;
63087;SDS011;49173;43.164;27.786;2024-01-07T02:06:52;8.93;;;3.20;;
63087;SDS011;49173;43.164;27.786;2024-01-07T02:09:19;7.93;;;3.50;;
63087;SDS011;49173;43.164;27.786;2024-01-07T02:11:59;6.70;;;3.17;;
63087;SDS011;49173;43.164;27.786;2024-01-07T02:14:26;7.28;;;3.50;;
63087;SDS011;49173;43.164;27.786;2024-01-07T02:16:52;9.32;;;3.42;;
63087;SDS011;49173;43.164;27.786;2024-01-07T02:19:18;8.13;;;3.50;;
63087;SDS011;49173;43.164;27.786;2024-01-07T02:21:47;8.68;;;3.50;;
63087;SDS011;49173;43.164;27.786;2024-01-07T02:24:16;7.55;;;3.75;;
63087;SDS011;49173;43.164;27.786;2024-01-07T02:26:42;9.27;;;3.55;;
63087;SDS011;49173;43.164;27.786;2024-01-07T02:29:08;7.93;;;3.40;;
63087;SDS011;49173;43.164;27.786;2024-01-07T02:31:34;9.95;;;3.88;;
63087;SDS011;49173;43.164;27.786;2024-01-07T02:34:00;6.15;;;3.25;;
63087;SDS011;49173;43.164;27.786;2024-01-07T02:36:25;6.93;;;3.63;;
63087;SDS011;49173;43.164;27.786;2024-01-07T02:38:51;6.45;;;3.40;;
63087;SDS011;49173;43.164;27.786;2024-01-07T02:41:17;7.05;;;3.97;;
63087;SDS011;49173;43.164;27.786;2024-01-07T02:43:42;8.43;;;3.80;;
63087;SDS011;49173;43.164;27.786;2024-01-07T02:46:08;5.78;;;3.22;;
63087;SDS011;49173;43.164;27.786;2024-01-07T02:48:34;8.00;;;3.33;;
63087;SDS011;49173;43.164;27.786;2024-01-07T02:51:00;8.98;;;4.13;;
63087;SDS011;49173;43.164;27.786;2024-01-07T02:53:28;9.53;;;3.43;;
63087;SDS011;49173;43.164;27.786;2024-01-07T02:55:54;13.18;;;4.00;;
63087;SDS011;49173;43.164;27.786;2024-01-07T02:58:20;9.70;;;4.10;;
63087;SDS011;49173;43.164;27.786;2024-01-07T03:00:46;7.05;;;3.78;;
63087;SDS011;49173;43.164;27.786;2024-01-07T03:03:11;10.70;;;5.18;;
63087;SDS011;49173;43.164;27.786;2024-01-07T03:05:37;10.15;;;4.53;;
63087;SDS011;49173;43.164;27.786;2024-01-07T03:08:03;10.02;;;4.72;;
63087;SDS011;49173;43.164;27.786;2024-01-07T03:10:29;12.38;;;4.60;;
63087;SDS011;49173;43.164;27.786;2024-01-07T03:12:55;8.43;;;4.05;;
63087;SDS011;49173;43.164;27.786;2024-01-07T03:15:20;6.13;;;4.10;;
63087;SDS011;49173;43.164;27.786;2024-01-07T03:17:46;7.38;;;3.97;;
63087;SDS011;49173;43.164;27.786;2024-01-07T03:20:12;8.82;;;3.58;;
63087;SDS011;49173;43.164;27.786;2024-01-07T03:22:38;8.68;;;3.70;;
63087;SDS011;49173;43.164;27.786;2024-01-07T03:25:03;8.40;;;3.67;;
63087;SDS011;49173;43.164;27.786;2024-01-07T03:27:30;7.50;;;3.80;;
63087;SDS011;49173;43.164;27.786;2024-01-07T03:29:56;6.88;;;3.70;;
63087;SDS011;49173;43.164;27.786;2024-01-07T03:32:21;12.10;;;4.82;;
63087;SDS011;49173;43.164;27.786;2024-01-07T03:34:47;9.25;;;4.28;;
63087;SDS011;49173;43.164;27.786;2024-01-07T03:37:13;9.05;;;3.70;;
63087;SDS011;49173;43.164;27.786;2024-01-07T03:39:38;13.88;;;4.05;;
63087;SDS011;49173;43.164;27.786;2024-01-07T03:42:04;8.65;;;3.78;;
63087;SDS011;49173;43.164;27.786;2024-01-07T03:44:37;8.77;;;4.13;;
63087;SDS011;49173;43.164;27.786;2024-01-07T03:47:04;8.70;;;4.20;;
63087;SDS011;49173;43.164;27.786;2024-01-07T03:49:30;11.52;;;4.20;;
63087;SDS011;49173;43.164;27.786;2024-01-07T03:51:56;6.85;;;4.10;;
63087;SDS011;49173;43.164;27.786;2024-01-07T03:54:21;10.63;;;4.60;;
63087;SDS011;49173;43.164;27.786;2024-01-07T03:56:48;10.45;;;4.03;;
63087;SDS011;49173;43.164;27.786;2024-01-07T03:59:13;7.38;;;3.75;;
63087;SDS011;49173;43.164;27.786;2024-01-07T04:01:39;9.00;;;5.18;;
63087;SDS011;49173;43.164;27.786;2024-01-07T04:04:05;13.35;;;5.38;;
63087;SDS011;49173;43.164;27.786;2024-01-07T04:06:30;11.45;;;4.88;;
63087;SDS011;49173;43.164;27.786;2024-01-07T04:08:56;11.55;;;5.63;;
63087;SDS011;49173;43.164;27.786;2024-01-07T04:11:22;10.93;;;5.45;;
63087;SDS011;49173;43.164;27.786;2024-01-07T04:13:48;10.82;;;4.97;;
63087;SDS011;49173;43.164;27.786;2024-01-07T04:16:20;9.68;;;4.63;;
63087;SDS011;49173;43.164;27.786;2024-01-07T04:18:46;10.05;;;5.47;;
63087;SDS011;49173;43.164;27.786;2024-01-07T04:21:12;9.57;;;4.65;;
63087;SDS011;49173;43.164;27.786;2024-01-07T04:23:38;10.05;;;5.03;;
63087;SDS011;49173;43.164;27.786;2024-01-07T04:26:09;10.82;;;4.80;;
63087;SDS011;49173;43.164;27.786;2024-01-07T04:28:35;9.50;;;4.72;;
63087;SDS011;49173;43.164;27.786;2024-01-07T04:31:01;7.68;;;3.88;;
63087;SDS011;49173;43.164;27.786;2024-01-07T04:33:26;9.43;;;4.07;;
63087;SDS011;49173;43.164;27.786;2024-01-07T04:35:52;8.38;;;4.25;;
63087;SDS011;49173;43.164;27.786;2024-01-07T04:38:22;7.70;;;4.05;;
63087;SDS011;49173;43.164;27.786;2024-01-07T04:40:48;7.35;;;4.05;;
63087;SDS011;49173;43.164;27.786;2024-01-07T04:43:14;11.88;;;4.38;;
63087;SDS011;49173;43.164;27.786;2024-01-07T04:45:40;7.68;;;4.20;;
63087;SDS011;49173;43.164;27.786;2024-01-07T04:48:06;9.45;;;3.97;;
63087;SDS011;49173;43.164;27.786;2024-01-07T04:50:32;9.48;;;3.88;;
63087;SDS011;49173;43.164;27.786;2024-01-07T04:52:57;8.80;;;5.00;;
63087;SDS011;49173;43.164;27.786;2024-01-07T04:55:23;10.25;;;4.20;;
63087;SDS011;49173;43.164;27.786;2024-01-07T04:57:49;8.30;;;3.90;;
63087;SDS011;49173;43.164;27.786;2024-01-07T05:00:15;6.25;;;3.60;;
63087;SDS011;49173;43.164;27.786;2024-01-07T05:02:41;12.63;;;5.82;;
63087;SDS011;49173;43.164;27.786;2024-01-07T05:05:08;9.35;;;5.32;;
63087;SDS011;49173;43.164;27.786;2024-01-07T05:07:34;8.73;;;4.57;;
63087;SDS011;49173;43.164;27.786;2024-01-07T05:10:00;13.68;;;4.60;;
63087;SDS011;49173;43.164;27.786;2024-01-07T05:12:25;10.07;;;4.90;;
63087;SDS011;49173;43.164;27.786;2024-01-07T05:14:51;11.57;;;5.18;;
63087;SDS011;49173;43.164;27.786;2024-01-07T05:17:17;10.52;;;4.55;;
63087;SDS011;49173;43.164;27.786;2024-01-07T05:19:43;9.52;;;4.70;;
63087;SDS011;49173;43.164;27.786;2024-01-07T05:22:09;9.20;;;4.63;;
63087;SDS011;49173;43.164;27.786;2024-01-07T05:24:37;7.45;;;4.40;;
63087;SDS011;49173;43.164;27.786;2024-01-07T05:27:06;10.05;;;4.40;;
63087;SDS011;49173;43.164;27.786;2024-01-07T05:29:32;11.75;;;5.00;;
63087;SDS011;49173;43.164;27.786;2024-01-07T05:32:01;11.77;;;6.03;;
63087;SDS011;49173;43.164;27.786;2024-01-07T05:34:28;15.40;;;7.97;;
63087;SDS011;49173;43.164;27.786;2024-01-07T05:36:54;14.13;;;7.75;;
63087;SDS011;49173;43.164;27.786;2024-01-07T05:39:19;10.77;;;7.00;;
63087;SDS011;49173;43.164;27.786;2024-01-07T05:41:45;9.60;;;4.75;;
63087;SDS011;49173;43.164;27.786;2024-01-07T05:44:11;8.30;;;4.53;;
63087;SDS011;49173;43.164;27.786;2024-01-07T05:46:40;9.18;;;4.60;;
63087;SDS011;49173;43.164;27.786;2024-01-07T05:49:08;10.45;;;5.25;;
63087;SDS011;49173;43.164;27.786;2024-01-07T05:51:41;9.65;;;4.88;;
63087;SDS011;49173;43.164;27.786;2024-01-07T05:54:07;11.48;;;4.85;;
63087;SDS011;49173;43.164;27.786;2024-01-07T05:56:39;10.60;;;4.65;;
63087;SDS011;49173;43.164;27.786;2024-01-07T05:59:07;10.98;;;4.78;;
63087;SDS011;49173;43.164;27.786;2024-01-07T06:01:36;9.10;;;4.72;;
63087;SDS011;49173;43.164;27.786;2024-01-07T06:04:03;9.90;;;4.50;;
63087;SDS011;49173;43.164;27.786;2024-01-07T06:06:34;11.20;;;5.03;;
63087;SDS011;49173;43.164;27.786;2024-01-07T06:09:00;8.85;;;4.57;;
63087;SDS011;49173;43.164;27.786;2024-01-07T06:11:28;11.00;;;5.07;;
63087;SDS011;49173;43.164;27.786;2024-01-07T06:13:57;10.02;;;4.60;;
63087;SDS011;49173;43.164;27.786;2024-01-07T06:16:26;23.35;;;13.77;;
63087;SDS011;49173;43.164;27.786;2024-01-07T06:18:52;13.07;;;5.35;;
63087;SDS011;49173;43.164;27.786;2024-01-07T06:21:25;12.25;;;7.28;;
63087;SDS011;49173;43.164;27.786;2024-01-07T06:26:24;9.88;;;4.93;;
63087;SDS011;49173;43.164;27.786;2024-01-07T06:28:55;11.30;;;5.32;;
63087;SDS011;49173;43.164;27.786;2024-01-07T06:31:25;9.75;;;4.70;;
63087;SDS011;49173;43.164;27.786;2024-01-07T06:33:54;8.35;;;4.25;;
63087;SDS011;49173;43.164;27.786;2024-01-07T06:36:22;10.50;;;4.50;;
63087;SDS011;49173;43.164;27.786;2024-01-07T06:38:52;12.63;;;4.57;;
63087;SDS011;49173;43.164;27.786;2024-01-07T06:41:19;8.40;;;4.68;;
63087;SDS011;49173;43.164;27.786;2024-01-07T06:43:45;6.88;;;4.28;;
63087;SDS011;49173;43.164;27.786;2024-01-07T06:48:41;9.35;;;4.38;;
63087;SDS011;49173;43.164;27.786;2024-01-07T06:51:10;10.25;;;4.95;;
63087;SDS011;49173;43.164;27.786;2024-01-07T06:53:41;33.15;;;19.42;;
63087;SDS011;49173;43.164;27.786;2024-01-07T06:56:07;18.02;;;9.25;;
63087;SDS011;49173;43.164;27.786;2024-01-07T06:58:36;31.63;;;21.88;;
63087;SDS011;49173;43.164;27.786;2024-01-07T07:01:08;13.57;;;8.02;;
63087;SDS011;49173;43.164;27.786;2024-01-07T07:03:41;13.57;;;9.65;;
63087;SDS011;49173;43.164;27.786;2024-01-07T07:06:10;6.78;;;5.07;;
63087;SDS011;49173;43.164;27.786;2024-01-07T07:08:38;6.35;;;4.55;;
63087;SDS011;49173;43.164;27.786;2024-01-07T07:11:07;4.22;;;2.92;;
63087;SDS011;49173;43.164;27.786;2024-01-07T07:13:36;4.22;;;2.50;;
63087;SDS011;49173;43.164;27.786;2024-01-07T07:16:07;6.10;;;3.50;;
63087;SDS011;49173;43.164;27.786;2024-01-07T07:18:38;8.18;;;4.05;;
63087;SDS011;49173;43.164;27.786;2024-01-07T07:21:04;6.45;;;3.00;;
63087;SDS011;49173;43.164;27.786;2024-01-07T07:26:02;5.85;;;2.78;;
63087;SDS011;49173;43.164;27.786;2024-01-07T07:28:35;4.22;;;2.63;;
63087;SDS011;49173;43.164;27.786;2024-01-07T07:31:07;6.00;;;3.60;;
63087;SDS011;49173;43.164;27.786;2024-01-07T07:33:39;5.60;;;2.97;;
63087;SDS011;49173;43.164;27.786;2024-01-07T07:36:08;6.53;;;2.65;;
63087;SDS011;49173;43.164;27.786;2024-01-07T07:38:39;3.80;;;2.20;;
63087;SDS011;49173;43.164;27.786;2024-01-07T07:41:07;4.10;;;2.25;;
63087;SDS011;49173;43.164;27.786;2024-01-07T07:43:36;3.33;;;2.03;;
63087;SDS011;49173;43.164;27.786;2024-01-07T07:46:02;4.15;;;1.92;;
63087;SDS011;49173;43.164;27.786;2024-01-07T07:48:29;7.82;;;2.22;;
63087;SDS011;49173;43.164;27.786;2024-01-07T07:50:59;5.13;;;1.80;;
63087;SDS011;49173;43.164;27.786;2024-01-07T07:53:25;3.70;;;1.80;;
63087;SDS011;49173;43.164;27.786;2024-01-07T07:55:52;2.70;;;1.42;;
63087;SDS011;49173;43.164;27.786;2024-01-07T07:58:21;3.10;;;1.67;;
63087;SDS011;49173;43.164;27.786;2024-01-07T08:00:50;4.43;;;2.47;;
63087;SDS011;49173;43.164;27.786;2024-01-07T08:03:19;3.95;;;1.95;;
63087;SDS011;49173;43.164;27.786;2024-01-07T08:05:50;3.92;;;1.50;;
63087;SDS011;49173;43.164;27.786;2024-01-07T08:08:20;4.32;;;1.70;;
63087;SDS011;49173;43.164;27.786;2024-01-07T08:10:46;3.25;;;1.20;;
63087;SDS011;49173;43.164;27.786;2024-01-07T08:13:14;3.92;;;2.10;;
63087;SDS011;49173;43.164;27.786;2024-01-07T08:15:43;3.78;;;1.83;;
63087;SDS011;49173;43.164;27.786;2024-01-07T08:18:09;7.78;;;2.30;;
63087;SDS011;49173;43.164;27.786;2024-01-07T08:20:35;5.90;;;2.22;;
63087;SDS011;49173;43.164;27.786;2024-01-07T08:23:08;4.20;;;2.60;;
63087;SDS011;49173;43.164;27.786;2024-01-07T08:25:38;4.22;;;1.85;;
63087;SDS011;49173;43.164;27.786;2024-01-07T08:30:33;4.80;;;2.42;;
63087;SDS011;49173;43.164;27.786;2024-01-07T08:33:05;2.83;;;2.15;;
63087;SDS011;49173;43.164;27.786;2024-01-07T08:35:34;6.35;;;2.08;;
63087;SDS011;49173;43.164;27.786;2024-01-07T08:38:03;6.38;;;2.17;;
63087;SDS011;49173;43.164;27.786;2024-01-07T08:40:47;3.03;;;1.80;;
63087;SDS011;49173;43.164;27.786;2024-01-07T08:43:15;4.63;;;2.30;;
63087;SDS011;49173;43.164;27.786;2024-01-07T08:45:44;6.03;;;3.13;;
63087;SDS011;49173;43.164;27.786;2024-01-07T08:48:16;5.32;;;2.38;;
63087;SDS011;49173;43.164;27.786;2024-01-07T08:50:45;6.18;;;2.97;;
63087;SDS011;49173;43.164;27.786;2024-01-07T08:53:12;6.10;;;2.72;;
63087;SDS011;49173;43.164;27.786;2024-01-07T08:55:38;7.53;;;3.28;;
63087;SDS011;49173;43.164;27.786;2024-01-07T08:58:04;7.22;;;2.50;;
63087;SDS011;49173;43.164;27.786;2024-01-07T09:00:32;5.30;;;1.95;;
63087;SDS011;49173;43.164;27.786;2024-01-07T09:03:03;8.20;;;2.15;;
63087;SDS011;49173;43.164;27.786;2024-01-07T09:05:29;7.28;;;2.90;;
63087;SDS011;49173;43.164;27.786;2024-01-07T09:07:55;7.55;;;2.33;;
63087;SDS011;49173;43.164;27.786;2024-01-07T09:10:24;8.15;;;2.80;;
63087;SDS011;49173;43.164;27.786;2024-01-07T09:12:54;7.97;;;2.40;;
63087;SDS011;49173;43.164;27.786;2024-01-07T09:15:26;4.78;;;2.03;;
63087;SDS011;49173;43.164;27.786;2024-01-07T09:17:57;8.73;;;3.25;;
63087;SDS011;49173;43.164;27.786;2024-01-07T09:20:27;10.23;;;4.05;;
63087;SDS011;49173;43.164;27.786;2024-01-07T09:22:56;11.38;;;3.67;;
63087;SDS011;49173;43.164;27.786;2024-01-07T09:25:22;14.68;;;4.15;;
63087;SDS011;49173;43.164;27.786;2024-01-07T09:27:51;7.05;;;2.60;;
63087;SDS011;49173;43.164;27.786;2024-01-07T09:30:21;10.50;;;2.40;;
63087;SDS011;49173;43.164;27.786;2024-01-07T09:32:47;5.53;;;1.98;;
63087;SDS011;49173;43.164;27.786;2024-01-07T09:35:18;9.40;;;2.35;;
63087;SDS011;49173;43.164;27.786;2024-01-07T09:37:46;9.90;;;2.78;;
63087;SDS011;49173;43.164;27.786;2024-01-07T09:40:18;19.13;;;2.60;;
63087;SDS011;49173;43.164;27.786;2024-01-07T09:42:48;9.75;;;2.47;;
63087;SDS011;49173;43.164;27.786;2024-01-07T09:47:44;12.93;;;3.22;;
63087;SDS011;49173;43.164;27.786;2024-01-07T09:50:14;11.38;;;2.83;;
63087;SDS011;49173;43.164;27.786;2024-01-07T09:52:52;13.05;;;3.20;;
63087;SDS011;49173;43.164;27.786;2024-01-07T09:55:26;17.30;;;4.13;;
63087;SDS011;49173;43.164;27.786;2024-01-07T09:57:56;12.68;;;3.17;;
63087;SDS011;49173;43.164;27.786;2024-01-07T10:00:27;16.88;;;3.63;;
63087;SDS011;49173;43.164;27.786;2024-01-07T10:02:54;17.25;;;5.38;;
63087;SDS011;49173;43.164;27.786;2024-01-07T10:05:22;16.20;;;4.65;;
63087;SDS011;49173;43.164;27.786;2024-01-07T10:07:48;18.42;;;4.47;;
63087;SDS011;49173;43.164;27.786;2024-01-07T10:10:17;16.70;;;3.35;;
63087;SDS011;49173;43.164;27.786;2024-01-07T10:12:46;14.23;;;3.42;;
63087;SDS011;49173;43.164;27.786;2024-01-07T10:15:18;10.13;;;2.95;;
63087;SDS011;49173;43.164;27.786;2024-01-07T10:17:47;14.30;;;4.22;;
63087;SDS011;49173;43.164;27.786;2024-01-07T10:20:17;19.80;;;4.45;;
63087;SDS011;49173;43.164;27.786;2024-01-07T10:22:51;19.02;;;3.25;;
63087;SDS011;49173;43.164;27.786;2024-01-07T10:25:25;17.35;;;4.05;;
63087;SDS011;49173;43.164;27.786;2024-01-07T10:28:01;18.30;;;5.32;;
63087;SDS011;49173;43.164;27.786;2024-01-07T10:30:30;25.45;;;3.85;;
63087;SDS011;49173;43.164;27.786;2024-01-07T10:32:57;19.35;;;4.50;;
63087;SDS011;49173;43.164;27.786;2024-01-07T10:35:35;26.10;;;7.65;;
63087;SDS011;49173;43.164;27.786;2024-01-07T10:38:07;35.58;;;16.02;;
63087;SDS011;49173;43.164;27.786;2024-01-07T10:40:36;52.67;;;26.92;;
63087;SDS011;49173;43.164;27.786;2024-01-07T10:43:03;51.47;;;27.73;;
63087;SDS011;49173;43.164;27.786;2024-01-07T10:45:33;44.53;;;15.55;;
63087;SDS011;49173;43.164;27.786;2024-01-07T10:47:59;73.05;;;31.92;;
63087;SDS011;49173;43.164;27.786;2024-01-07T10:50:33;42.50;;;14.73;;
63087;SDS011;49173;43.164;27.786;2024-01-07T10:53:05;38.75;;;15.55;;
63087;SDS011;49173;43.164;27.786;2024-01-07T10:55:39;39.33;;;15.70;;
63087;SDS011;49173;43.164;27.786;2024-01-07T10:58:29;20.33;;;5.60;;
63087;SDS011;49173;43.164;27.786;2024-01-07T11:01:05;49.08;;;20.25;;
63087;SDS011;49173;43.164;27.786;2024-01-07T11:06:39;27.55;;;10.05;;
63087;SDS011;49173;43.164;27.786;2024-01-07T11:12:10;25.45;;;7.47;;
63087;SDS011;49173;43.164;27.786;2024-01-07T11:14:38;24.80;;;8.85;;
63087;SDS011;49173;43.164;27.786;2024-01-07T11:17:10;20.67;;;5.20;;
63087;SDS011;49173;43.164;27.786;2024-01-07T11:19:38;26.10;;;10.15;;
63087;SDS011;49173;43.164;27.786;2024-01-07T11:22:23;15.55;;;3.58;;
63087;SDS011;49173;43.164;27.786;2024-01-07T11:24:53;19.27;;;5.30;;
63087;SDS011;49173;43.164;27.786;2024-01-07T11:27:24;23.33;;;6.47;;
63087;SDS011;49173;43.164;27.786;2024-01-07T11:30:07;22.67;;;5.78;;
63087;SDS011;49173;43.164;27.786;2024-01-07T11:33:01;23.92;;;4.72;;
63087;SDS011;49173;43.164;27.786;2024-01-07T11:38:36;17.73;;;5.90;;
63087;SDS011;49173;43.164;27.786;2024-01-07T11:41:05;20.95;;;6.28;;
63087;SDS011;49173;43.164;27.786;2024-01-07T11:43:35;26.98;;;6.55;;
63087;SDS011;49173;43.164;27.786;2024-01-07T11:46:24;23.90;;;6.82;;
63087;SDS011;49173;43.164;27.786;2024-01-07T11:48:54;23.33;;;4.82;;
63087;SDS011;49173;43.164;27.786;2024-01-07T11:51:28;24.88;;;5.57;;
63087;SDS011;49173;43.164;27.786;2024-01-07T11:54:05;22.42;;;7.45;;
63087;SDS011;49173;43.164;27.786;2024-01-07T11:56:32;48.30;;;15.20;;
63087;SDS011;49173;43.164;27.786;2024-01-07T11:59:04;31.52;;;9.82;;
63087;SDS011;49173;43.164;27.786;2024-01-07T12:03:59;24.63;;;7.38;;
63087;SDS011;49173;43.164;27.786;2024-01-07T12:06:29;25.77;;;6.32;;
63087;SDS011;49173;43.164;27.786;2024-01-07T12:08:55;25.23;;;7.78;;
63087;SDS011;49173;43.164;27.786;2024-01-07T12:11:22;27.98;;;4.18;;
63087;SDS011;49173;43.164;27.786;2024-01-07T12:16:17;20.90;;;4.32;;
63087;SDS011;49173;43.164;27.786;2024-01-07T12:18:44;19.30;;;5.20;;
63087;SDS011;49173;43.164;27.786;2024-01-07T12:21:10;26.15;;;9.07;;
63087;SDS011;49173;43.164;27.786;2024-01-07T12:23:47;26.92;;;5.63;;
63087;SDS011;49173;43.164;27.786;2024-01-07T12:26:16;37.05;;;10.85;;
63087;SDS011;49173;43.164;27.786;2024-01-07T12:28:53;28.95;;;6.72;;
63087;SDS011;49173;43.164;27.786;2024-01-07T12:31:33;19.10;;;4.38;;
63087;SDS011;49173;43.164;27.786;2024-01-07T12:33:59;22.20;;;4.65;;
63087;SDS011;49173;43.164;27.786;2024-01-07T12:36:29;33.78;;;9.88;;
63087;SDS011;49173;43.164;27.786;2024-01-07T12:38:59;35.40;;;12.38;;
63087;SDS011;49173;43.164;27.786;2024-01-07T12:41:31;27.38;;;8.82;;
63087;SDS011;49173;43.164;27.786;2024-01-07T12:44:00;25.88;;;5.22;;
63087;SDS011;49173;43.164;27.786;2024-01-07T12:46:29;17.60;;;5.43;;
63087;SDS011;49173;43.164;27.786;2024-01-07T12:48:59;30.42;;;6.47;;
63087;SDS011;49173;43.164;27.786;2024-01-07T12:51:30;28.60;;;8.05;;
63087;SDS011;49173;43.164;27.786;2024-01-07T12:53:58;22.42;;;5.85;;
63087;SDS011;49173;43.164;27.786;2024-01-07T12:56:31;28.00;;;7.50;;
63087;SDS011;49173;43.164;27.786;2024-01-07T12:59:02;25.65;;;5.75;;
63087;SDS011;49173;43.164;27.786;2024-01-07T13:01:31;29.05;;;6.60;;
63087;SDS011;49173;43.164;27.786;2024-01-07T13:04:04;25.17;;;6.85;;
63087;SDS011;49173;43.164;27.786;2024-01-07T13:06:33;28.33;;;8.07;;
63087;SDS011;49173;43.164;27.786;2024-01-07T13:08:59;24.80;;;3.75;;
63087;SDS011;49173;43.164;27.786;2024-01-07T13:11:30;24.55;;;4.18;;
63087;SDS011;49173;43.164;27.786;2024-01-07T13:14:00;26.83;;;6.53;;
63087;SDS011;49173;43.164;27.786;2024-01-07T13:16:27;21.98;;;4.80;;
63087;SDS011;49173;43.164;27.786;2024-01-07T13:18:57;23.02;;;7.47;;
63087;SDS011;49173;43.164;27.786;2024-01-07T13:21:23;18.58;;;5.07;;
63087;SDS011;49173;43.164;27.786;2024-01-07T13:23:49;17.50;;;4.35;;
63087;SDS011;49173;43.164;27.786;2024-01-07T13:26:18;18.27;;;4.18;;
63087;SDS011;49173;43.164;27.786;2024-01-07T13:28:47;19.13;;;3.90;;
63087;SDS011;49173;43.164;27.786;2024-01-07T13:31:16;28.67;;;4.43;;
63087;SDS011;49173;43.164;27.786;2024-01-07T13:33:43;22.15;;;3.30;;
63087;SDS011;49173;43.164;27.786;2024-01-07T13:36:08;22.42;;;3.17;;
63087;SDS011;49173;43.164;27.786;2024-01-07T13:38:40;18.77;;;3.15;;
63087;SDS011;49173;43.164;27.786;2024-01-07T13:41:07;24.52;;;3.83;;
63087;SDS011;49173;43.164;27.786;2024-01-07T13:43:37;20.45;;;4.32;;
63087;SDS011;49173;43.164;27.786;2024-01-07T13:46:08;20.95;;;3.65;;
63087;SDS011;49173;43.164;27.786;2024-01-07T13:48:37;21.35;;;3.55;;
63087;SDS011;49173;43.164;27.786;2024-01-07T13:51:16;21.67;;;4.60;;
63087;SDS011;49173;43.164;27.786;2024-01-07T13:53:55;17.20;;;3.03;;
63087;SDS011;49173;43.164;27.786;2024-01-07T13:56:26;24.97;;;4.33;;
63087;SDS011;49173;43.164;27.786;2024-01-07T13:58:55;11.35;;;3.17;;
63087;SDS011;49173;43.164;27.786;2024-01-07T14:01:29;24.40;;;3.65;;
63087;SDS011;49173;43.164;27.786;2024-01-07T14:03:58;20.83;;;5.03;;
63087;SDS011;49173;43.164;27.786;2024-01-07T14:06:27;18.80;;;5.00;;
63087;SDS011;49173;43.164;27.786;2024-01-07T14:08:59;29.00;;;6.03;;
63087;SDS011;49173;43.164;27.786;2024-01-07T14:11:28;24.17;;;7.03;;
63087;SDS011;49173;43.164;27.786;2024-01-07T14:13:59;18.17;;;3.92;;
63087;SDS011;49173;43.164;27.786;2024-01-07T14:16:30;22.40;;;4.30;;
63087;SDS011;49173;43.164;27.786;2024-01-07T14:18:59;22.63;;;5.18;;
63087;SDS011;49173;43.164;27.786;2024-01-07T14:21:31;27.75;;;6.13;;
63087;SDS011;49173;43.164;27.786;2024-01-07T14:23:57;21.20;;;7.60;;
63087;SDS011;49173;43.164;27.786;2024-01-07T14:26:24;29.58;;;5.03;;
63087;SDS011;49173;43.164;27.786;2024-01-07T14:28:55;28.58;;;8.18;;
63087;SDS011;49173;43.164;27.786;2024-01-07T14:31:23;25.95;;;4.78;;
63087;SDS011;49173;43.164;27.786;2024-01-07T14:33:52;22.67;;;5.35;;
63087;SDS011;49173;43.164;27.786;2024-01-07T14:36:18;22.92;;;5.75;;
63087;SDS011;49173;43.164;27.786;2024-01-07T14:38:45;22.58;;;5.60;;
63087;SDS011;49173;43.164;27.786;2024-01-07T14:41:14;21.65;;;5.60;;
63087;SDS011;49173;43.164;27.786;2024-01-07T14:43:44;28.88;;;6.10;;
63087;SDS011;49173;43.164;27.786;2024-01-07T14:46:11;28.02;;;6.45;;
63087;SDS011;49173;43.164;27.786;2024-01-07T14:48:37;29.40;;;7.78;;
63087;SDS011;49173;43.164;27.786;2024-01-07T14:51:06;23.65;;;6.95;;
63087;SDS011;49173;43.164;27.786;2024-01-07T14:53:35;31.67;;;7.85;;
63087;SDS011;49173;43.164;27.786;2024-01-07T14:56:04;30.50;;;10.15;;
63087;SDS011;49173;43.164;27.786;2024-01-07T14:58:31;40.08;;;10.77;;